Time;durP1;ratioP1;P1;durP2;ratioP2;P2;SDS_P1;SDS_P2;PMS_P1;PMS_P2;Temp;Humidity;BMP_temperature;BMP_pressure;BME280_temperature;BME280_humidity;BME280_pressure;Samples;Min_cycle;Max_cycle;Signal;HPM_P1;HPM_P2
2021/12/26 00:01:02;;;;;;;34.45;31.45;;;4.90;97.90;;;;;;5035691;28;20194;-72
2021/12/26 00:03:31;;;;;;;34.03;30.73;;;4.80;97.80;;;;;;5035515;28;20285;-72
2021/12/26 00:06:01;;;;;;;37.28;34.20;;;4.60;98.50;;;;;;5035645;28;20193;-72
2021/12/26 00:08:28;;;;;;;485.73;88.80;;;4.70;98.80;;;;;;5035427;28;20223;-72
2021/12/26 00:10:57;;;;;;;32.78;29.60;;;4.70;98.80;;;;;;5035487;28;20566;-72
2021/12/26 00:13:24;;;;;;;36.00;32.63;;;4.70;98.40;;;;;;5035591;28;20199;-72
2021/12/26 00:15:50;;;;;;;34.17;30.80;;;4.70;98.40;;;;;;5035365;28;20289;-72
2021/12/26 00:18:17;;;;;;;41.83;33.00;;;4.80;98.30;;;;;;5035297;28;20649;-72
2021/12/26 00:20:45;;;;;;;34.63;31.38;;;4.80;98.10;;;;;;5035391;28;20227;-72
2021/12/26 00:23:12;;;;;;;35.72;32.35;;;4.70;98.50;;;;;;5035450;28;20753;-72
2021/12/26 00:25:39;;;;;;;35.33;31.83;;;4.70;98.50;;;;;;5035397;28;20671;-72
2021/12/26 00:28:08;;;;;;;35.83;32.13;;;4.70;98.50;;;;;;5035098;28;20212;-72
2021/12/26 00:30:35;;;;;;;32.72;29.73;;;4.60;98.50;;;;;;5035220;28;20650;-72
2021/12/26 00:33:02;;;;;;;33.90;30.80;;;4.60;98.70;;;;;;5035331;28;20193;-72
2021/12/26 00:35:29;;;;;;;36.25;33.00;;;4.60;98.40;;;;;;5035125;28;20224;-72
2021/12/26 00:37:57;;;;;;;34.33;31.02;;;4.50;98.70;;;;;;5034931;28;20198;-72
2021/12/26 00:40:26;;;;;;;35.78;32.38;;;4.60;99.00;;;;;;5034901;28;20221;-72
2021/12/26 00:42:54;;;;;;;32.65;29.48;;;4.70;98.50;;;;;;5034724;28;20201;-72
2021/12/26 00:45:24;;;;;;;34.75;31.55;;;4.70;98.10;;;;;;5034940;28;20574;-72
2021/12/26 00:47:51;;;;;;;35.88;32.58;;;4.60;98.20;;;;;;5034854;28;20201;-72
2021/12/26 00:50:22;;;;;;;35.10;31.75;;;4.50;99.10;;;;;;5034673;28;20221;-72
2021/12/26 00:52:49;;;;;;;34.20;31.10;;;4.70;99.20;;;;;;5034888;28;20283;-71
2021/12/26 00:55:18;;;;;;;35.08;31.65;;;4.60;98.60;;;;;;5034741;28;20224;-72
2021/12/26 00:57:46;;;;;;;34.85;31.48;;;4.70;98.80;;;;;;5034576;28;20205;-72
2021/12/26 01:00:18;;;;;;;34.05;30.95;;;4.70;98.40;;;;;;5034354;28;20225;-72
2021/12/26 01:02:47;;;;;;;32.42;29.27;;;4.50;98.70;;;;;;5034727;28;20304;-72
2021/12/26 01:05:15;;;;;;;34.85;31.55;;;4.40;98.90;;;;;;5034511;28;20212;-72
2021/12/26 01:07:54;;;;;;;31.40;28.60;;;4.60;99.00;;;;;;5034552;28;20204;-72
2021/12/26 01:10:22;;;;;;;32.97;29.88;;;4.60;98.90;;;;;;5033704;28;20225;-71
2021/12/26 01:12:51;;;;;;;31.20;28.40;;;4.60;98.90;;;;;;5034507;28;20239;-71
2021/12/26 01:15:22;;;;;;;32.25;29.13;;;4.50;98.90;;;;;;5034514;28;20209;-72
2021/12/26 01:17:55;;;;;;;32.55;29.45;;;4.60;99.00;;;;;;5034371;28;20201;-72
2021/12/26 01:20:39;;;;;;;32.47;29.52;;;4.70;98.10;;;;;;5033884;28;20229;-72
2021/12/26 01:23:06;;;;;;;32.35;29.35;;;4.70;98.40;;;;;;5034432;28;20240;-72
2021/12/26 01:25:34;;;;;;;36.97;31.27;;;4.80;98.20;;;;;;5034214;28;20631;-72
2021/12/26 01:28:01;;;;;;;31.80;28.90;;;4.80;98.30;;;;;;5034034;28;20216;-72
2021/12/26 01:30:28;;;;;;;31.10;28.40;;;4.80;98.10;;;;;;5033805;28;20779;-72
2021/12/26 01:32:56;;;;;;;30.15;27.35;;;4.80;98.00;;;;;;5034054;28;20201;-72
2021/12/26 01:35:23;;;;;;;30.48;27.67;;;4.80;98.00;;;;;;5033982;28;20197;-72
2021/12/26 01:37:50;;;;;;;31.58;28.77;;;4.70;97.90;;;;;;5033757;28;20666;-72
2021/12/26 01:40:17;;;;;;;30.58;27.83;;;4.60;98.10;;;;;;5033551;28;20221;-72
2021/12/26 01:42:44;;;;;;;29.48;27.20;;;4.70;98.40;;;;;;5033845;28;20558;-72
2021/12/26 01:45:11;;;;;;;30.50;27.77;;;4.70;97.60;;;;;;5033516;28;20224;-72
2021/12/26 01:47:39;;;;;;;28.45;26.00;;;4.70;97.90;;;;;;5033778;28;20197;-72
2021/12/26 01:50:09;;;;;;;28.73;26.30;;;4.60;98.20;;;;;;5033442;28;20221;-72
2021/12/26 01:52:36;;;;;;;28.50;26.13;;;4.60;98.10;;;;;;5033815;28;20193;-72
2021/12/26 01:55:22;;;;;;;30.23;27.63;;;4.40;98.90;;;;;;5033687;28;20193;-72
2021/12/26 01:57:49;;;;;;;29.35;26.85;;;4.50;98.60;;;;;;5033468;28;20681;-72
2021/12/26 02:00:16;;;;;;;28.92;26.33;;;4.60;98.80;;;;;;5033103;28;20224;-72
2021/12/26 02:02:43;;;;;;;30.33;27.65;;;4.50;98.50;;;;;;5033518;28;20208;-72
2021/12/26 02:05:12;;;;;;;28.08;25.67;;;4.60;98.70;;;;;;5033717;28;20205;-72
2021/12/26 02:07:39;;;;;;;27.02;24.88;;;4.50;98.40;;;;;;5033411;28;20304;-72
2021/12/26 02:10:07;;;;;;;27.95;25.80;;;4.50;98.60;;;;;;5033009;28;20244;-72
2021/12/26 02:12:34;;;;;;;28.55;26.13;;;4.60;98.50;;;;;;5033228;28;20208;-72
2021/12/26 02:15:01;;;;;;;29.77;27.25;;;4.60;98.30;;;;;;5033298;28;20197;-72
2021/12/26 02:17:28;;;;;;;27.33;25.13;;;4.50;98.20;;;;;;5033308;28;20299;-72
2021/12/26 02:20:15;;;;;;;27.48;25.13;;;4.50;98.50;;;;;;5032766;28;20228;-72
2021/12/26 02:22:45;;;;;;;26.70;24.60;;;4.60;98.20;;;;;;5032475;28;20201;-72
2021/12/26 02:25:27;;;;;;;26.88;24.83;;;4.60;98.20;;;;;;5033304;28;20201;-72
2021/12/26 02:27:53;;;;;;;27.10;25.00;;;4.50;98.30;;;;;;5033063;28;20209;-72
2021/12/26 02:30:22;;;;;;;26.02;24.10;;;4.60;98.40;;;;;;5032794;28;20214;-72
2021/12/26 02:32:50;;;;;;;28.50;25.88;;;4.70;98.00;;;;;;5032961;28;20320;-72
2021/12/26 02:35:20;;;;;;;26.33;24.33;;;4.60;97.80;;;;;;5033028;28;20599;-72
2021/12/26 02:37:47;;;;;;;28.60;26.20;;;4.60;97.60;;;;;;5032791;28;20200;-72
2021/12/26 02:40:16;;;;;;;27.50;25.20;;;4.60;97.80;;;;;;5032504;28;20225;-72
2021/12/26 02:42:43;;;;;;;26.58;24.55;;;4.60;97.80;;;;;;5032947;28;20291;-72
2021/12/26 02:45:10;;;;;;;28.00;25.90;;;4.60;97.80;;;;;;5032518;28;20208;-72
2021/12/26 02:47:40;;;;;;;27.38;24.90;;;4.70;97.60;;;;;;5032715;28;20193;-72
2021/12/26 02:50:09;;;;;;;29.17;26.98;;;4.70;97.00;;;;;;5032481;28;20236;-72
2021/12/26 02:52:38;;;;;;;33.67;26.02;;;4.60;97.50;;;;;;5032896;28;20194;-72
2021/12/26 02:55:07;;;;;;;26.63;24.63;;;4.70;97.80;;;;;;5032691;28;20328;-72
2021/12/26 02:57:34;;;;;;;27.75;25.50;;;4.70;97.10;;;;;;5032839;28;20208;-72
2021/12/26 03:00:02;;;;;;;26.95;24.80;;;4.70;97.30;;;;;;5032406;28;20236;-72
2021/12/26 03:02:29;;;;;;;27.05;24.77;;;4.70;97.00;;;;;;5032581;28;20197;-72
2021/12/26 03:04:56;;;;;;;27.08;24.95;;;4.70;97.20;;;;;;5032571;28;20193;-72
2021/12/26 03:07:23;;;;;;;26.98;24.90;;;4.60;97.10;;;;;;5032646;28;20192;-72
2021/12/26 03:09:58;;;;;;;28.65;26.25;;;4.70;97.30;;;;;;5032341;28;20210;-71
2021/12/26 03:12:25;;;;;;;27.83;25.50;;;4.80;97.30;;;;;;5032734;28;20204;-72
2021/12/26 03:14:52;;;;;;;27.77;25.55;;;4.80;96.90;;;;;;5032536;28;20329;-72
2021/12/26 03:17:19;;;;;;;28.33;26.05;;;4.60;97.00;;;;;;5032581;28;20288;-72
2021/12/26 03:19:46;;;;;;;27.10;24.80;;;4.70;97.30;;;;;;5032208;28;20217;-72
2021/12/26 03:22:14;;;;;;;29.33;26.92;;;4.80;96.90;;;;;;5032694;28;20201;-72
2021/12/26 03:24:43;;;;;;;29.17;26.88;;;4.70;96.60;;;;;;5032629;28;20201;-72
2021/12/26 03:27:12;;;;;;;27.33;24.92;;;4.80;96.90;;;;;;5032565;28;20631;-72
2021/12/26 03:29:39;;;;;;;27.30;25.02;;;4.90;96.70;;;;;;5032146;28;20282;-72
2021/12/26 03:32:07;;;;;;;27.05;24.85;;;4.90;96.50;;;;;;5032559;28;20209;-72
2021/12/26 03:34:34;;;;;;;28.88;26.58;;;4.90;96.70;;;;;;5034517;28;20208;-72
2021/12/26 03:37:01;;;;;;;27.90;25.75;;;4.90;96.80;;;;;;5036569;28;20205;-72
2021/12/26 03:39:28;;;;;;;26.30;24.20;;;5.00;96.30;;;;;;5035748;28;20312;-72
2021/12/26 03:41:55;;;;;;;26.98;24.77;;;4.90;96.50;;;;;;5036335;28;20222;-72
2021/12/26 03:44:23;;;;;;;28.83;26.48;;;4.90;96.80;;;;;;5035935;28;20284;-72
2021/12/26 03:46:50;;;;;;;28.02;25.65;;;5.00;96.70;;;;;;5036169;28;20201;-72
2021/12/26 03:49:17;;;;;;;28.58;26.35;;;5.00;96.50;;;;;;5035979;28;20217;-72
2021/12/26 03:51:44;;;;;;;28.00;25.80;;;5.00;96.40;;;;;;5036126;28;20229;-72
2021/12/26 03:54:11;;;;;;;29.75;27.45;;;5.00;96.20;;;;;;5035975;28;20200;-72
2021/12/26 03:56:38;;;;;;;25.40;23.50;;;4.90;96.40;;;;;;5035890;28;20202;-72
2021/12/26 03:59:05;;;;;;;26.73;24.63;;;4.90;96.50;;;;;;5035734;28;20232;-72
2021/12/26 04:01:34;;;;;;;28.25;25.73;;;4.90;96.60;;;;;;5035750;28;20217;-72
2021/12/26 04:04:01;;;;;;;29.00;26.42;;;5.00;96.40;;;;;;5035869;28;20205;-72
2021/12/26 04:06:28;;;;;;;29.17;26.52;;;5.00;96.00;;;;;;5035809;28;20574;-72
2021/12/26 04:08:55;;;;;;;28.25;26.10;;;5.00;96.10;;;;;;5035677;28;20300;-72
2021/12/26 04:11:22;;;;;;;28.48;26.27;;;4.90;96.50;;;;;;5035681;28;20193;-72
2021/12/26 04:13:49;;;;;;;28.42;25.92;;;5.00;96.60;;;;;;5035657;28;20280;-72
2021/12/26 04:16:16;;;;;;;29.75;27.30;;;5.00;96.60;;;;;;5035436;28;20200;-72
2021/12/26 04:18:45;;;;;;;30.05;27.25;;;5.00;96.30;;;;;;5035576;28;20217;-72
2021/12/26 04:21:11;;;;;;;30.42;27.67;;;5.00;96.60;;;;;;5035275;28;20244;-72
2021/12/26 04:23:38;;;;;;;28.17;25.77;;;4.90;96.80;;;;;;5035535;28;20200;-72
2021/12/26 04:26:05;;;;;;;29.80;26.90;;;5.00;97.20;;;;;;5035596;28;20288;-72
2021/12/26 04:28:32;;;;;;;29.88;27.30;;;5.00;96.70;;;;;;5035057;28;20710;-72
2021/12/26 04:30:59;;;;;;;30.35;27.80;;;5.00;96.60;;;;;;5035242;28;20193;-72
2021/12/26 04:33:26;;;;;;;29.38;26.88;;;5.00;96.50;;;;;;5035175;28;20204;-72
2021/12/26 04:35:54;;;;;;;29.58;27.08;;;5.00;96.80;;;;;;5035366;28;20197;-72
2021/12/26 04:38:21;;;;;;;30.50;27.90;;;5.00;96.80;;;;;;5035138;28;20566;-72
2021/12/26 04:40:50;;;;;;;29.65;27.23;;;4.90;96.90;;;;;;5034961;28;20328;-72
2021/12/26 04:43:19;;;;;;;29.67;27.17;;;5.00;96.80;;;;;;5034951;28;20197;-72
2021/12/26 04:45:47;;;;;;;30.52;27.88;;;5.00;96.70;;;;;;5034149;28;20208;-72
2021/12/26 04:48:14;;;;;;;32.17;29.42;;;5.10;96.40;;;;;;5035028;28;20586;-72
2021/12/26 04:50:42;;;;;;;30.90;27.85;;;5.10;96.30;;;;;;5034957;28;20651;-71
2021/12/26 04:53:10;;;;;;;31.50;28.65;;;5.10;96.60;;;;;;5034837;28;20201;-72
2021/12/26 04:55:37;;;;;;;31.45;28.75;;;5.10;96.60;;;;;;5034908;28;20204;-72
2021/12/26 04:58:04;;;;;;;31.33;28.52;;;5.20;96.30;;;;;;5034993;28;20202;-72
2021/12/26 05:00:33;;;;;;;31.48;28.60;;;5.20;96.90;;;;;;5034451;28;20279;-72
2021/12/26 05:03:04;;;;;;;31.20;28.70;;;5.20;97.20;;;;;;5034827;28;20197;-72
2021/12/26 05:05:31;;;;;;;31.17;28.42;;;5.20;97.00;;;;;;5034709;28;20205;-72
2021/12/26 05:07:58;;;;;;;31.70;28.70;;;5.20;96.90;;;;;;5034476;28;20377;-72
2021/12/26 05:10:28;;;;;;;29.48;26.95;;;5.30;97.00;;;;;;5034271;28;20833;-72
2021/12/26 05:12:56;;;;;;;145.00;38.25;;;5.30;96.90;;;;;;5034578;28;20204;-72
2021/12/26 05:15:23;;;;;;;31.38;28.48;;;5.30;97.30;;;;;;5034585;28;20248;-72
2021/12/26 05:17:51;;;;;;;243.80;47.00;;;5.40;97.60;;;;;;5034474;28;20197;-72
2021/12/26 05:20:19;;;;;;;31.70;28.70;;;5.40;97.40;;;;;;5034121;28;20303;-72
2021/12/26 05:22:47;;;;;;;31.73;28.95;;;5.40;99.00;;;;;;5034395;28;20567;-72
2021/12/26 05:25:14;;;;;;;32.55;29.70;;;5.30;98.50;;;;;;5034240;28;20204;-72
2021/12/26 05:27:43;;;;;;;33.17;30.10;;;5.40;99.20;;;;;;5034266;28;20213;-72
2021/12/26 05:30:14;;;;;;;31.20;28.38;;;5.50;98.20;;;;;;5034115;28;20221;-72
2021/12/26 05:32:42;;;;;;;33.20;30.45;;;5.50;97.10;;;;;;5034277;28;20208;-72
2021/12/26 05:35:10;;;;;;;63.05;31.25;;;5.40;96.70;;;;;;5034008;28;20197;-72
2021/12/26 05:37:38;;;;;;;69.15;31.63;;;5.40;96.80;;;;;;5034065;28;20288;-72
2021/12/26 05:40:07;;;;;;;1999.90;714.53;;;5.40;99.20;;;;;;5033537;28;20617;-72
2021/12/26 05:42:34;;;;;;;401.95;66.50;;;5.50;99.60;;;;;;5033872;28;20271;-72
2021/12/26 05:45:04;;;;;;;183.98;41.22;;;5.50;99.50;;;;;;5033616;28;20208;-72
2021/12/26 05:47:31;;;;;;;32.42;29.48;;;5.50;99.90;;;;;;5033915;28;20190;-72
2021/12/26 05:49:58;;;;;;;32.60;29.38;;;5.50;99.00;;;;;;5033642;28;20291;-72
2021/12/26 05:52:25;;;;;;;32.35;29.45;;;5.50;99.90;;;;;;5033785;28;20685;-72
2021/12/26 05:54:53;;;;;;;33.08;29.98;;;5.50;99.50;;;;;;5033746;28;20193;-72
2021/12/26 05:57:21;;;;;;;33.35;30.15;;;5.60;98.90;;;;;;5033414;28;20201;-72
2021/12/26 05:59:48;;;;;;;31.95;29.00;;;5.50;98.50;;;;;;5033319;28;20256;-72
2021/12/26 06:02:16;;;;;;;33.22;30.13;;;5.60;98.30;;;;;;5033688;28;20233;-72
2021/12/26 06:04:43;;;;;;;34.17;31.17;;;5.60;98.10;;;;;;5033614;28;20193;-72
2021/12/26 06:07:10;;;;;;;32.75;29.30;;;5.60;97.80;;;;;;5033485;28;20243;-72
2021/12/26 06:09:37;;;;;;;32.65;29.63;;;5.60;98.30;;;;;;5033196;28;20221;-72
2021/12/26 06:12:04;;;;;;;1999.90;318.73;;;5.70;98.00;;;;;;5033424;28;20200;-72
2021/12/26 06:14:31;;;;;;;1999.90;469.38;;;5.70;99.90;;;;;;5033399;28;20655;-72
2021/12/26 06:16:58;;;;;;;1000.50;150.45;;;5.70;99.90;;;;;;5033332;28;20197;-72
2021/12/26 06:19:26;;;;;;;32.45;29.50;;;5.70;99.90;;;;;;5033021;28;20272;-72
2021/12/26 06:21:53;;;;;;;31.45;28.63;;;5.70;99.90;;;;;;5033274;28;20225;-72
2021/12/26 06:24:20;;;;;;;33.38;30.27;;;5.70;99.90;;;;;;5033233;28;20204;-72
2021/12/26 06:26:47;;;;;;;32.25;29.25;;;5.70;99.80;;;;;;5033215;28;20292;-72
2021/12/26 06:29:14;;;;;;;32.28;29.30;;;5.70;98.60;;;;;;5032761;28;20322;-72
2021/12/26 06:31:41;;;;;;;32.70;29.55;;;5.70;98.10;;;;;;5033098;28;20682;-72
2021/12/26 06:34:08;;;;;;;763.20;104.47;;;5.70;98.10;;;;;;5033101;28;20283;-72
2021/12/26 06:36:37;;;;;;;38.25;32.15;;;5.70;98.00;;;;;;5033092;28;20208;-72
2021/12/26 06:39:04;;;;;;;32.92;30.05;;;5.70;98.30;;;;;;5032612;28;20217;-72
2021/12/26 06:41:31;;;;;;;31.40;28.60;;;5.80;97.40;;;;;;5032734;28;20701;-72
2021/12/26 06:43:58;;;;;;;32.55;29.30;;;5.80;97.00;;;;;;5032910;28;20239;-72
2021/12/26 06:46:25;;;;;;;32.03;29.10;;;5.80;96.50;;;;;;5032929;28;20629;-72
2021/12/26 06:48:52;;;;;;;32.42;29.63;;;5.80;96.60;;;;;;5032774;28;20308;-72
2021/12/26 06:51:20;;;;;;;32.53;29.63;;;5.90;96.10;;;;;;5032930;28;20193;-72
2021/12/26 06:53:48;;;;;;;32.33;29.23;;;5.80;95.70;;;;;;5032645;28;20207;-72
2021/12/26 06:56:15;;;;;;;33.17;30.25;;;5.80;95.90;;;;;;5032740;28;20207;-72
2021/12/26 06:58:42;;;;;;;33.63;30.42;;;5.90;95.60;;;;;;5032625;28;20710;-72
2021/12/26 07:01:10;;;;;;;30.98;28.13;;;5.80;95.60;;;;;;5032586;28;20217;-72
2021/12/26 07:03:37;;;;;;;33.22;30.23;;;5.80;95.60;;;;;;5032642;28;20200;-72
2021/12/26 07:06:04;;;;;;;32.83;30.02;;;5.80;95.80;;;;;;5032611;28;20197;-72
2021/12/26 07:08:32;;;;;;;33.35;30.35;;;5.80;95.90;;;;;;5031832;28;20295;-72
2021/12/26 07:11:00;;;;;;;33.88;31.02;;;5.80;95.60;;;;;;5032661;28;20275;-72
2021/12/26 07:13:27;;;;;;;33.90;30.67;;;5.80;95.30;;;;;;5032572;28;20202;-72
2021/12/26 07:15:54;;;;;;;34.75;31.35;;;5.90;95.00;;;;;;5032429;28;20288;-72
2021/12/26 07:18:21;;;;;;;34.35;30.90;;;5.90;94.70;;;;;;5032504;28;20288;-72
2021/12/26 07:20:48;;;;;;;33.20;30.10;;;5.80;94.70;;;;;;5032114;28;20621;-72
2021/12/26 07:23:15;;;;;;;32.85;29.95;;;5.80;95.00;;;;;;5032519;28;20284;-72
2021/12/26 07:25:42;;;;;;;34.65;31.27;;;5.90;95.10;;;;;;5032416;28;20201;-72
2021/12/26 07:28:10;;;;;;;392.92;61.53;;;5.80;95.20;;;;;;5032178;28;20223;-72
2021/12/26 07:30:37;;;;;;;33.00;30.05;;;5.80;95.40;;;;;;5032308;28;20733;-72
2021/12/26 07:33:04;;;;;;;32.70;29.90;;;5.80;95.80;;;;;;5032549;28;20193;-72
2021/12/26 07:35:31;;;;;;;82.32;34.15;;;5.90;95.70;;;;;;5032462;28;20733;-72
2021/12/26 07:37:58;;;;;;;33.05;30.15;;;5.90;95.50;;;;;;5032185;28;20288;-72
2021/12/26 07:40:27;;;;;;;34.85;31.65;;;5.90;95.70;;;;;;5032094;28;20217;-72
2021/12/26 07:42:54;;;;;;;33.85;30.55;;;6.00;95.50;;;;;;5032472;28;20271;-72
2021/12/26 07:45:22;;;;;;;31.63;28.70;;;6.00;95.30;;;;;;5032062;28;20290;-72
2021/12/26 07:47:49;;;;;;;33.88;30.88;;;6.10;95.20;;;;;;5032119;28;20208;-72
2021/12/26 07:50:16;;;;;;;35.10;32.00;;;6.10;95.00;;;;;;5031895;28;20304;-72
2021/12/26 07:52:45;;;;;;;41.60;30.58;;;6.10;94.80;;;;;;5032268;28;20236;-72
2021/12/26 07:55:13;;;;;;;32.33;29.45;;;6.20;95.00;;;;;;5032224;28;20201;-72
2021/12/26 07:57:41;;;;;;;33.10;29.60;;;6.30;94.90;;;;;;5032096;28;20722;-72
2021/12/26 08:00:09;;;;;;;31.45;28.50;;;6.40;94.30;;;;;;5031855;28;20271;-72
2021/12/26 08:02:38;;;;;;;29.80;27.10;;;6.30;94.00;;;;;;5032093;28;20682;-72
2021/12/26 08:05:06;;;;;;;31.77;28.92;;;6.30;94.10;;;;;;5032077;28;20198;-72
2021/12/26 08:07:34;;;;;;;32.38;29.48;;;6.40;93.90;;;;;;5032042;28;20201;-72
2021/12/26 08:10:01;;;;;;;32.53;29.55;;;6.30;93.90;;;;;;5039886;22;20205;-72
2021/12/26 08:12:28;;;;;;;31.25;28.35;;;6.40;94.00;;;;;;5031894;28;20197;-72
2021/12/26 08:14:55;;;;;;;33.08;29.88;;;6.30;94.20;;;;;;5031986;28;20197;-72
2021/12/26 08:17:23;;;;;;;863.22;113.68;;;6.30;94.50;;;;;;5031906;28;20284;-72
2021/12/26 08:19:52;;;;;;;1886.30;256.55;;;6.30;96.50;;;;;;5031653;28;20225;-72
2021/12/26 08:22:19;;;;;;;222.02;48.30;;;6.40;99.70;;;;;;5035022;28;20259;-72
2021/12/26 08:24:46;;;;;;;183.18;42.80;;;6.50;99.60;;;;;;5035450;28;20193;-72
2021/12/26 08:27:13;;;;;;;37.75;33.92;;;6.50;99.90;;;;;;5035494;28;20283;-72
2021/12/26 08:29:40;;;;;;;34.70;31.50;;;6.50;99.90;;;;;;5035073;28;20720;-72
2021/12/26 08:32:11;;;;;;;34.45;31.45;;;6.50;97.70;;;;;;5035260;28;20219;-72
2021/12/26 08:34:38;;;;;;;34.95;31.90;;;6.50;96.70;;;;;;5035393;28;20223;-72
2021/12/26 08:37:06;;;;;;;35.22;32.00;;;6.50;95.90;;;;;;5035204;28;20208;-72
2021/12/26 08:39:36;;;;;;;37.47;33.97;;;6.50;95.40;;;;;;5034677;28;20565;-72
2021/12/26 08:42:04;;;;;;;956.53;138.57;;;6.60;95.80;;;;;;5035264;28;20685;-72
2021/12/26 08:44:31;;;;;;;114.63;39.88;;;6.60;95.70;;;;;;5034867;28;20566;-72
2021/12/26 08:46:58;;;;;;;601.67;90.40;;;6.60;96.80;;;;;;5035168;28;20240;-72
2021/12/26 08:49:25;;;;;;;36.15;32.65;;;6.60;97.10;;;;;;5034663;28;20586;-72
2021/12/26 08:51:52;;;;;;;34.95;31.85;;;6.70;96.40;;;;;;5035016;28;20285;-72
2021/12/26 08:54:22;;;;;;;36.15;32.95;;;6.80;95.70;;;;;;5034916;28;20198;-72
2021/12/26 08:56:50;;;;;;;37.65;34.00;;;6.80;95.00;;;;;;5034885;28;20296;-72
2021/12/26 08:59:16;;;;;;;38.00;34.35;;;7.00;94.60;;;;;;5034725;28;20223;-72
2021/12/26 09:01:45;;;;;;;37.70;34.30;;;7.00;94.00;;;;;;5034681;28;20223;-72
2021/12/26 09:04:12;;;;;;;35.13;32.03;;;7.10;94.40;;;;;;5034693;28;20244;-72
2021/12/26 09:06:39;;;;;;;36.75;33.30;;;7.10;94.20;;;;;;5034662;28;20624;-72
2021/12/26 09:09:08;;;;;;;34.28;31.20;;;7.10;93.10;;;;;;5034403;28;20223;-72
2021/12/26 09:11:36;;;;;;;36.30;33.20;;;7.20;92.50;;;;;;5034470;28;20666;-72
2021/12/26 09:14:03;;;;;;;35.90;32.90;;;7.20;91.30;;;;;;5034519;28;20260;-72
2021/12/26 09:16:33;;;;;;;35.80;32.38;;;7.30;91.70;;;;;;5034503;28;20283;-72
2021/12/26 09:19:00;;;;;;;35.90;32.70;;;7.30;92.30;;;;;;5034597;28;20228;-72
2021/12/26 09:21:27;;;;;;;36.92;33.72;;;7.20;92.20;;;;;;5034267;28;20558;-72
2021/12/26 09:23:54;;;;;;;37.63;34.42;;;7.20;92.00;;;;;;5034360;28;20204;-72
2021/12/26 09:26:21;;;;;;;89.40;36.33;;;7.20;92.20;;;;;;5034322;28;20580;-72
2021/12/26 09:28:50;;;;;;;33.67;30.40;;;7.30;94.10;;;;;;5034150;28;20223;-72
2021/12/26 09:31:17;;;;;;;36.17;32.70;;;7.30;94.30;;;;;;5033751;28;20237;-72
2021/12/26 09:33:44;;;;;;;216.63;47.08;;;7.40;93.70;;;;;;5034179;28;20193;-72
2021/12/26 09:36:11;;;;;;;34.85;31.85;;;7.60;93.20;;;;;;5033987;28;20201;-72
2021/12/26 09:38:38;;;;;;;33.72;30.90;;;7.70;94.70;;;;;;5033760;28;20217;-72
2021/12/26 09:41:05;;;;;;;36.70;33.38;;;7.80;93.10;;;;;;5033859;28;20566;-72
2021/12/26 09:43:32;;;;;;;33.53;30.60;;;7.80;92.10;;;;;;5033709;28;20217;-72
2021/12/26 09:46:01;;;;;;;33.65;30.85;;;7.80;91.70;;;;;;5034057;28;20203;-72
2021/12/26 09:48:27;;;;;;;33.80;30.90;;;7.80;91.30;;;;;;5033785;28;20225;-72
2021/12/26 09:50:54;;;;;;;33.85;31.00;;;7.90;90.60;;;;;;5033559;28;20197;-72
2021/12/26 09:53:23;;;;;;;32.67;29.98;;;7.90;90.70;;;;;;5033780;28;20578;-72
2021/12/26 09:55:50;;;;;;;800.05;104.88;;;8.00;91.20;;;;;;5033758;28;20197;-72
2021/12/26 09:58:17;;;;;;;35.07;32.17;;;8.00;91.00;;;;;;5033687;28;20201;-72
2021/12/26 10:00:45;;;;;;;32.10;29.30;;;8.10;93.00;;;;;;5033514;28;20945;-72
2021/12/26 10:03:22;;;;;;;31.50;28.88;;;8.20;91.30;;;;;;5033618;28;20475;-72
2021/12/26 10:06:00;;;;;;;31.40;28.83;;;8.20;90.40;;;;;;5033563;28;20240;-72
2021/12/26 10:08:27;;;;;;;30.63;28.33;;;8.40;89.70;;;;;;5033389;28;20573;-72
2021/12/26 10:11:12;;;;;;;33.83;31.23;;;8.40;88.40;;;;;;5033138;28;20809;-72
2021/12/26 10:13:46;;;;;;;33.05;30.35;;;8.30;88.80;;;;;;5033416;28;20451;-72
2021/12/26 10:16:15;;;;;;;27.35;25.25;;;8.30;88.80;;;;;;5033448;28;20206;-72
2021/12/26 10:18:45;;;;;;;30.75;28.38;;;8.50;88.40;;;;;;5033281;28;20257;-72
2021/12/26 10:21:31;;;;;;;34.03;29.73;;;8.40;88.10;;;;;;5033108;28;20205;-72
2021/12/26 10:24:01;;;;;;;31.63;29.10;;;8.50;89.60;;;;;;5033187;28;20217;-72
2021/12/26 10:26:30;;;;;;;30.60;28.20;;;8.50;89.00;;;;;;5033170;28;20459;-72
2021/12/26 10:29:18;;;;;;;31.50;28.90;;;8.60;90.80;;;;;;5033160;28;20482;-72
2021/12/26 10:31:52;;;;;;;31.27;28.87;;;8.60;88.90;;;;;;5033211;28;20459;-72
2021/12/26 10:34:27;;;;;;;31.90;29.50;;;8.70;88.50;;;;;;5033106;28;20463;-72
2021/12/26 10:36:55;;;;;;;32.93;30.07;;;8.90;87.90;;;;;;5032984;28;20820;-72
2021/12/26 10:39:26;;;;;;;32.00;29.50;;;8.90;87.40;;;;;;5032432;28;20476;-72
2021/12/26 10:41:55;;;;;;;35.30;32.17;;;9.00;87.00;;;;;;5033138;28;20451;-72
2021/12/26 10:44:29;;;;;;;33.23;30.60;;;8.90;87.10;;;;;;5032061;28;20458;-73
2021/12/26 10:46:57;;;;;;;31.90;29.50;;;9.00;86.80;;;;;;5032928;28;20454;-72
2021/12/26 10:49:29;;;;;;;29.27;27.07;;;8.90;86.80;;;;;;5032629;28;20929;-72
2021/12/26 10:51:56;;;;;;;29.47;27.17;;;8.90;86.80;;;;;;5032977;28;20456;-72
2021/12/26 10:54:27;;;;;;;30.13;27.93;;;8.80;87.30;;;;;;5032950;28;20459;-72
2021/12/26 10:57:10;;;;;;;27.60;25.50;;;8.90;87.40;;;;;;5032907;28;21006;-72
2021/12/26 10:59:39;;;;;;;28.40;26.30;;;8.90;87.10;;;;;;5032653;28;20530;-73
2021/12/26 11:02:07;;;;;;;27.35;25.33;;;8.90;87.40;;;;;;5032694;28;20571;-72
2021/12/26 11:04:37;;;;;;;31.50;29.10;;;8.90;88.90;;;;;;5032646;28;20201;-72
2021/12/26 11:07:08;;;;;;;33.47;30.73;;;8.90;89.00;;;;;;5032704;28;20960;-73
2021/12/26 11:09:35;;;;;;;29.27;26.63;;;9.00;90.30;;;;;;5032234;28;20530;-73
2021/12/26 11:12:06;;;;;;;30.83;28.33;;;9.20;90.20;;;;;;5032496;28;20821;-72
2021/12/26 11:14:53;;;;;;;36.27;33.17;;;9.30;88.10;;;;;;5032539;28;20462;-72
2021/12/26 11:17:29;;;;;;;34.23;31.53;;;9.30;87.20;;;;;;5032406;28;20547;-72
2021/12/26 11:19:57;;;;;;;31.00;28.70;;;9.30;87.20;;;;;;5032263;28;20482;-72
2021/12/26 11:22:25;;;;;;;31.77;29.37;;;9.30;86.60;;;;;;5032514;28;20482;-72
2021/12/26 11:24:53;;;;;;;30.07;27.70;;;9.50;86.40;;;;;;5032389;28;20462;-73
2021/12/26 11:27:20;;;;;;;29.50;27.40;;;9.50;86.30;;;;;;5032591;28;20546;-72
2021/12/26 11:29:48;;;;;;;29.07;26.60;;;9.50;85.90;;;;;;5032238;28;20475;-72
2021/12/26 11:32:16;;;;;;;27.83;25.83;;;9.60;86.90;;;;;;5032501;28;20997;-73
2021/12/26 11:34:46;;;;;;;27.93;25.83;;;9.80;87.30;;;;;;5032429;28;20543;-73
2021/12/26 11:37:14;;;;;;;26.97;25.17;;;10.10;86.30;;;;;;5032446;28;20452;-72
2021/12/26 11:39:43;;;;;;;27.67;25.67;;;10.20;86.20;;;;;;5031758;28;20993;-73
2021/12/26 11:42:40;;;;;;;27.93;25.97;;;10.50;84.70;;;;;;5032366;28;20460;-73
2021/12/26 11:45:13;;;;;;;30.03;27.87;;;10.60;84.40;;;;;;5032356;28;20801;-72
2021/12/26 11:48:20;;;;;;;32.80;30.40;;;10.80;83.50;;;;;;5032337;28;20510;-72
2021/12/26 11:50:57;;;;;;;32.13;29.63;;;10.80;82.40;;;;;;5032209;28;20531;-72
2021/12/26 11:53:43;;;;;;;30.07;27.67;;;10.70;85.00;;;;;;5032346;28;20470;-72
2021/12/26 11:56:21;;;;;;;29.03;26.90;;;10.60;85.50;;;;;;5035223;28;20463;-72
2021/12/26 11:59:06;;;;;;;29.27;27.17;;;10.80;83.90;;;;;;5035995;28;20854;-72
2021/12/26 12:01:35;;;;;;;28.23;26.33;;;10.80;83.70;;;;;;5035939;28;20479;-72
2021/12/26 12:04:15;;;;;;;27.10;25.30;;;10.70;83.60;;;;;;5035881;28;20483;-72
2021/12/26 12:06:42;;;;;;;27.00;25.30;;;10.80;83.20;;;;;;5035975;28;20813;-73
2021/12/26 12:09:27;;;;;;;27.90;25.90;;;10.70;83.90;;;;;;5035601;28;20472;-73
2021/12/26 12:12:04;;;;;;;26.27;24.67;;;10.80;84.00;;;;;;5035595;28;20459;-73
2021/12/26 12:14:50;;;;;;;27.00;25.20;;;10.90;83.90;;;;;;5035761;28;20454;-73
2021/12/26 12:17:19;;;;;;;29.67;26.93;;;11.00;83.60;;;;;;5035753;28;20455;-73
2021/12/26 12:20:16;;;;;;;27.67;25.80;;;11.00;83.90;;;;;;5035266;28;20471;-73
2021/12/26 12:23:19;;;;;;;28.43;26.57;;;11.00;84.40;;;;;;5035539;28;20479;-72
2021/12/26 12:25:53;;;;;;;27.23;25.43;;;11.20;83.70;;;;;;5035430;28;20451;-73
2021/12/26 12:28:23;;;;;;;27.17;25.40;;;11.20;82.90;;;;;;5035388;28;20458;-73
2021/12/26 12:30:52;;;;;;;29.13;27.20;;;11.20;82.80;;;;;;5035297;28;20455;-73
2021/12/26 12:33:25;;;;;;;27.73;25.83;;;11.40;81.80;;;;;;5035251;28;20450;-72
2021/12/26 12:36:04;;;;;;;29.73;27.83;;;11.30;81.30;;;;;;5035333;28;20460;-73
2021/12/26 12:38:39;;;;;;;28.10;26.30;;;11.20;82.80;;;;;;5034965;28;20472;-73
2021/12/26 12:41:12;;;;;;;27.03;25.23;;;11.20;83.00;;;;;;5035026;28;20836;-72
2021/12/26 12:43:48;;;;;;;26.40;24.80;;;11.30;85.70;;;;;;5034945;28;20471;-73
2021/12/26 12:46:15;;;;;;;26.57;24.97;;;11.30;85.20;;;;;;5035056;28;20452;-73